Volga-4011 — UBNJ — position and weather

sailwx.info

Track history (hours):
 
Tides and Currents Weather Stations Pressure Air Temp Water Temp Dewpoint Dewpoint Depression Visibility Wind Speed Wind Dir Waves Ship Positions

Volga-4011

Last reported at 2015-Aug-10 08:20 UTC. Time now 2015-Aug-31 15:24 UTC.
Position N 31°02' E 122°17'.
Warning: this ship's position is 21 days out of date.

Length 140 m; draft 3.7 m.

Type: Cargo ship. MMSI: 273358200.

Date/timePositionNaut miles runAvg speedWind from/ knotsBaromVisibWave heightAir tempDewpointWater temp
2015-Aug-10 08:20N 31°02' E 122°17'5 6.2
2015-Aug-10 07:33N 31°02' E 122°12'7 7.5
2015-Aug-10 06:33N 31°04' E 122°03'10 9.9
2015-Aug-10 05:33N 31°09' E 121°53'1110.4
2015-Aug-10 04:32N 31°17' E 121°45'9 9.2
2015-Aug-10 03:33N 31°22' E 121°37'8 8.3
2015-Aug-10 02:33N 31°27' E 121°28'8 7.8
2015-Aug-10 01:33N 31°32' E 121°21'8 8.2
2015-Aug-10 00:34N 31°38' E 121°16'0 0.2
2015-Aug-09 23:29N 31°39' E 121°16'0 0.1
2015-Aug-09 22:32N 31°38' E 121°16'0 0.1
2015-Aug-09 21:33N 31°38' E 121°16'0 0.0
2015-Aug-09 20:19N 31°38' E 121°16'0 0.1
2015-Aug-09 19:31N 31°38' E 121°16'0 0.0
2015-Aug-09 18:29N 31°38' E 121°16'0 0.0
2015-Aug-09 17:33N 31°38' E 121°16'0 0.1
2015-Aug-09 16:33N 31°38' E 121°16'0 0.1
2015-Aug-09 15:31N 31°39' E 121°15'0 0.0
2015-Aug-09 14:26N 31°39' E 121°15'0 0.0
2015-Aug-09 13:32N 31°39' E 121°15'0 0.0
2015-Aug-09 11:28N 31°39' E 121°15'0 0.0
2015-Aug-09 10:31N 31°39' E 121°15'0 0.1
2015-Aug-09 09:32N 31°39' E 121°16'0 0.1
2015-Aug-09 08:30N 31°38' E 121°16'0 0.1
2015-Aug-09 07:31N 31°38' E 121°16'0 0.0
2015-Aug-09 06:32N 31°38' E 121°16'0 0.0
2015-Aug-09 05:32N 31°38' E 121°16'0 0.0
2015-Aug-09 04:33N 31°38' E 121°16'0 0.0
2015-Aug-09 03:33N 31°38' E 121°16'0 0.1
2015-Aug-09 02:28N 31°38' E 121°16'0 0.1
2015-Aug-09 01:29N 31°39' E 121°16'0 0.0
2015-Aug-09 00:32N 31°39' E 121°16'0 0.0
2015-Aug-08 23:30N 31°39' E 121°16'0 0.0
2015-Aug-08 22:31N 31°39' E 121°16'0 0.0
2015-Aug-08 21:31N 31°39' E 121°16'0 0.1
2015-Aug-08 20:32N 31°38' E 121°16'0 0.0
2015-Aug-08 19:33N 31°38' E 121°16'0 0.0
2015-Aug-08 18:27N 31°38' E 121°16'0 0.0
2015-Aug-08 17:31N 31°38' E 121°16'0 0.0
2015-Aug-08 16:29N 31°38' E 121°16'0 0.0
2015-Aug-08 15:24N 31°38' E 121°16'0 0.1
2015-Aug-08 14:24N 31°38' E 121°16'0 0.1
2015-Aug-08 13:31N 31°39' E 121°15'0 0.0
2015-Aug-08 11:26N 31°39' E 121°15'0 0.0
2015-Aug-08 10:30N 31°39' E 121°15'0 0.0
2015-Aug-08 09:27N 31°39' E 121°15'0 0.0
2015-Aug-08 08:16N 31°39' E 121°15'0 0.1
2015-Aug-08 07:23N 31°38' E 121°16'0 0.1
2015-Aug-08 06:29N 31°38' E 121°16'0 0.0
2015-Aug-08 05:33N 31°38' E 121°16'0 0.0
2015-Aug-08 04:25N 31°38' E 121°16'0 0.0
2015-Aug-08 03:28N 31°38' E 121°16'0 0.0
2015-Aug-08 02:32N 31°38' E 121°16'0 0.1
2015-Aug-08 01:32N 31°38' E 121°16'0 0.1
2015-Aug-08 00:33N 31°39' E 121°16'0 0.0
2015-Aug-07 23:25N 31°39' E 121°16'0 0.0
2015-Aug-07 22:28N 31°39' E 121°16'0 0.0
2015-Aug-07 21:23N 31°39' E 121°16'0 0.0
2015-Aug-07 20:30N 31°39' E 121°16'0 0.1
2015-Aug-07 19:33N 31°38' E 121°16'0 0.0
2015-Aug-07 18:31N 31°38' E 121°16'0 0.0
2015-Aug-07 17:20N 31°38' E 121°16'0 0.1
2015-Aug-07 16:32N 31°38' E 121°16'0 0.0
2015-Aug-07 15:33N 31°38' E 121°16'0 0.0
2015-Aug-07 14:31N 31°38' E 121°16'0 0.0
2015-Aug-07 13:28N 31°38' E 121°16'0 0.1
2015-Aug-07 12:31N 31°39' E 121°15'0 0.1
2015-Aug-07 11:32N 31°39' E 121°16'2 1.6
2015-Aug-07 10:26N 31°38' E 121°14'0 0.0
2015-Aug-07 09:29N 31°38' E 121°14'0 0.0
2015-Aug-07 08:33N 31°38' E 121°14'0 0.0
2015-Aug-07 07:33N 31°38' E 121°14'0 0.0
2015-Aug-07 06:31N 31°38' E 121°14'0 0.0
2015-Aug-07 05:26N 31°38' E 121°14'0 0.0
2015-Aug-07 04:30N 31°38' E 121°14'0 0.0
2015-Aug-07 03:33N 31°38' E 121°14'0 0.0
2015-Aug-07 02:31N 31°38' E 121°14'0 0.0
2015-Aug-07 01:29N 31°38' E 121°14'0 0.0
2015-Aug-07 00:32N 31°38' E 121°14'0 0.0
2015-Aug-06 23:30N 31°38' E 121°14'0 0.0
2015-Aug-06 22:33N 31°38' E 121°14'0 0.0
2015-Aug-06 21:27N 31°38' E 121°14'0 0.0
2015-Aug-06 20:31N 31°38' E 121°14'0 0.0
2015-Aug-06 19:31N 31°38' E 121°14'0 0.0
2015-Aug-06 18:27N 31°38' E 121°14'0 0.0
2015-Aug-06 17:33N 31°38' E 121°14'0 0.0
2015-Aug-06 16:30N 31°38' E 121°14'0 0.0
2015-Aug-06 15:28N 31°38' E 121°14'0 0.0
2015-Aug-06 14:32N 31°38' E 121°14'0 0.0
2015-Aug-06 13:29N 31°38' E 121°14'0 0.0
2015-Aug-06 12:33N 31°38' E 121°14'0 0.0
2015-Aug-06 11:25N 31°38' E 121°14'0 0.0
2015-Aug-06 10:25N 31°38' E 121°14'0 0.0
2015-Aug-06 09:32N 31°38' E 121°14'0 0.0
2015-Aug-06 08:30N 31°38' E 121°14'0 0.0
2015-Aug-06 07:33N 31°38' E 121°14'1 1.1
2015-Aug-06 06:26N 31°39' E 121°15'0 0.1
2015-Aug-06 05:24N 31°39' E 121°15'0 0.1
2015-Aug-06 04:33N 31°39' E 121°15'0 0.0
2015-Aug-06 03:28N 31°39' E 121°15'0 0.0
2015-Aug-06 02:29N 31°39' E 121°15'0 0.1
2015-Aug-06 01:32N 31°39' E 121°15'0 0.0
2015-Aug-06 00:30N 31°39' E 121°15'0 0.1
2015-Aug-05 23:32N 31°39' E 121°15'0 0.1
2015-Aug-05 22:33N 31°39' E 121°15'0 0.0
2015-Aug-05 21:31N 31°39' E 121°15'0 0.0
2015-Aug-05 20:31N 31°39' E 121°15'0 0.0
2015-Aug-05 19:26N 31°39' E 121°15'0 0.0
2015-Aug-05 18:33N 31°39' E 121°15'0 0.2
2015-Aug-05 17:33N 31°39' E 121°15'0 0.0
2015-Aug-05 16:28N 31°39' E 121°15'0 0.0
2015-Aug-05 15:29N 31°39' E 121°15'0 0.0
2015-Aug-05 14:26N 31°39' E 121°15'0 0.0
2015-Aug-05 13:30N 31°39' E 121°15'0 0.1
2015-Aug-05 12:31N 31°39' E 121°15'0 0.1
2015-Aug-05 11:31N 31°39' E 121°15'0 0.2
2015-Aug-05 10:32N 31°39' E 121°15'0 0.1
2015-Aug-05 09:31N 31°39' E 121°15'0 0.0
2015-Aug-05 08:32N 31°39' E 121°15'0 0.0
2015-Aug-05 07:28N 31°39' E 121°15'0 0.1
2015-Aug-05 06:26N 31°39' E 121°15'0 0.2
2015-Aug-05 05:32N 31°39' E 121°15'0 0.0
2015-Aug-05 04:30N 31°39' E 121°15'0 0.0
2015-Aug-05 03:31N 31°39' E 121°15'0 0.0
2015-Aug-05 02:28N 31°39' E 121°15'0 0.0
2015-Aug-05 01:32N 31°39' E 121°15'0 0.0
2015-Aug-05 00:27N 31°39' E 121°15'0 0.1
2015-Aug-04 23:33N 31°39' E 121°15'0 0.1
2015-Aug-04 22:28N 31°39' E 121°15'0 0.1
2015-Aug-04 21:31N 31°39' E 121°15'0 0.0
2015-Aug-04 20:29N 31°39' E 121°15'0 0.0
2015-Aug-04 19:31N 31°39' E 121°15'0 0.0
2015-Aug-04 18:28N 31°39' E 121°15'0 0.1
2015-Aug-04 17:32N 31°39' E 121°15'0 0.1
2015-Aug-04 16:30N 31°39' E 121°15'0 0.0
2015-Aug-04 15:33N 31°39' E 121°15'0 0.0
2015-Aug-04 14:13N 31°39' E 121°15'0 0.1
2015-Aug-04 13:31N 31°39' E 121°15'0 0.0
2015-Aug-04 12:32N 31°39' E 121°15'0 0.0
2015-Aug-04 11:27N 31°39' E 121°15'0 0.1
2015-Aug-04 10:33N 31°39' E 121°15'0 0.1
2015-Aug-04 09:28N 31°39' E 121°15'0 0.0
2015-Aug-04 08:23N 31°39' E 121°15'0 0.0
2015-Aug-04 07:29N 31°39' E 121°15'0 0.0
2015-Aug-04 06:30N 31°39' E 121°15'0 0.2
2015-Aug-04 05:26N 31°39' E 121°15'0 0.0
2015-Aug-04 04:31N 31°39' E 121°15'0 0.0
2015-Aug-04 03:20N 31°39' E 121°15'0 0.1
2015-Aug-04 02:33N 31°39' E 121°15'0 0.0
2015-Aug-04 01:33N 31°39' E 121°15'0 0.0
2015-Aug-04 00:28N 31°39' E 121°15'0 0.0
2015-Aug-03 23:32N 31°39' E 121°15'0 0.0
2015-Aug-03 22:29N 31°39' E 121°15'0 0.1
2015-Aug-03 21:30N 31°39' E 121°15'0 0.1
2015-Aug-03 20:30N 31°39' E 121°15'0 0.0
2015-Aug-03 19:25N 31°39' E 121°15'0 0.0
2015-Aug-03 18:32N 31°39' E 121°15'0 0.0
2015-Aug-03 17:32N 31°39' E 121°15'0 0.1
2015-Aug-03 16:30N 31°39' E 121°15'0 0.0
2015-Aug-03 15:28N 31°39' E 121°15'0 0.0
2015-Aug-03 14:22N 31°39' E 121°15'0 0.0
2015-Aug-03 13:29N 31°39' E 121°15'0 0.0
2015-Aug-03 12:33N 31°39' E 121°15'0 0.1
2015-Aug-03 11:30N 31°39' E 121°15'0 0.0
2015-Aug-03 10:31N 31°39' E 121°15'0 0.1
2015-Aug-03 09:32N 31°39' E 121°15'0 0.2
2015-Aug-03 08:29N 31°39' E 121°15'0 0.0
2015-Aug-03 06:30N 31°39' E 121°15'0 0.0
2015-Aug-03 05:28N 31°39' E 121°15'0 0.2
2015-Aug-03 04:32N 31°39' E 121°15'0 0.1
2015-Aug-03 03:29N 31°39' E 121°15'0 0.0
2015-Aug-03 02:30N 31°39' E 121°15'0 0.0
2015-Aug-03 01:31N 31°39' E 121°15'0 0.0
2015-Aug-03 00:31N 31°39' E 121°15'0 0.0
2015-Aug-02 23:32N 31°39' E 121°15'0 0.0
2015-Aug-02 22:33N 31°39' E 121°15'0 0.1
2015-Aug-02 21:33N 31°39' E 121°15'0 0.1
2015-Aug-02 20:31N 31°39' E 121°15'0 0.1
2015-Aug-02 19:29N 31°39' E 121°15'0 0.0
2015-Aug-02 18:32N 31°39' E 121°15'0 0.0
2015-Aug-02 17:18N 31°39' E 121°15'0 0.0
2015-Aug-02 16:30N 31°39' E 121°15'0 0.2
2015-Aug-02 15:28N 31°39' E 121°15'0 0.1
2015-Aug-02 14:32N 31°39' E 121°15'0 0.1
2015-Aug-02 13:32N 31°39' E 121°15'0 0.1
2015-Aug-02 12:33N 31°39' E 121°15'0 0.1
2015-Aug-02 11:28N 31°39' E 121°15'0 0.0
2015-Aug-02 10:28N 31°39' E 121°15'0 0.1
2015-Aug-02 09:29N 31°39' E 121°15'0 0.1
2015-Aug-02 08:30N 31°39' E 121°15'0 0.1
2015-Aug-02 07:30N 31°39' E 121°15'0 0.0
2015-Aug-02 06:25N 31°39' E 121°15'0 0.1
2015-Aug-02 05:32N 31°39' E 121°15'0 0.1
2015-Aug-02 04:32N 31°39' E 121°15'0 0.1
2015-Aug-02 03:30N 31°39' E 121°15'0 0.0
2015-Aug-02 02:28N 31°39' E 121°15'0 0.1
2015-Aug-02 01:31N 31°39' E 121°15'0 0.0
2015-Aug-02 00:29N 31°39' E 121°15'0 0.0
2015-Aug-01 23:30N 31°39' E 121°15'0 0.0
2015-Aug-01 22:30N 31°39' E 121°15'0 0.0
2015-Aug-01 21:31N 31°39' E 121°15'0 0.0
2015-Aug-01 20:32N 31°39' E 121°15'0 0.1
2015-Aug-01 19:32N 31°39' E 121°15'0 0.0
2015-Aug-01 18:30N 31°39' E 121°15'0 0.0
2015-Aug-01 17:34N 31°39' E 121°15'0 0.0
2015-Aug-01 16:28N 31°39' E 121°15'0 0.1
2015-Aug-01 15:29N 31°39' E 121°15'0 0.1
2015-Aug-01 14:27N 31°39' E 121°15'0 0.0
2015-Aug-01 13:18N 31°39' E 121°15'0 0.0
2015-Aug-01 12:31N 31°39' E 121°15'0 0.0
2015-Aug-01 11:31N 31°39' E 121°15'0 0.0
2015-Aug-01 10:32N 31°39' E 121°15'0 0.0
2015-Aug-01 09:21N 31°39' E 121°15'0 0.1
2015-Aug-01 08:33N 31°39' E 121°15'0 0.1
2015-Aug-01 07:22N 31°39' E 121°15'0 0.1
2015-Aug-01 06:32N 31°39' E 121°15'0 0.0
2015-Aug-01 05:23N 31°39' E 121°15'0 0.0
2015-Aug-01 04:30N 31°39' E 121°15'0 0.1
2015-Aug-01 03:31N 31°39' E 121°15'0 0.1
2015-Aug-01 02:31N 31°39' E 121°15'0 0.0
2015-Aug-01 01:32N 31°39' E 121°15'0 0.0
2015-Aug-01 00:33N 31°39' E 121°15'0 0.0
2015-Jul-31 23:33N 31°39' E 121°15'0 0.0
2015-Jul-31 22:28N 31°39' E 121°15'0 0.0
2015-Jul-31 21:29N 31°39' E 121°15'0 0.0
2015-Jul-31 20:29N 31°39' E 121°15'0 0.1
2015-Jul-31 19:30N 31°39' E 121°15'0 0.2
2015-Jul-31 18:31N 31°39' E 121°15'0 0.1
2015-Jul-31 17:31N 31°39' E 121°15'0 0.0
2015-Jul-31 16:32N 31°39' E 121°15'0 0.1
2015-Jul-31 14:24N 31°39' E 121°15'0 0.1
2015-Jul-31 13:25N 31°39' E 121°15'0 0.0
2015-Jul-31 12:31N 31°39' E 121°15'0 0.0
2015-Jul-31 11:29N 31°39' E 121°15'0 0.1
2015-Jul-31 10:30N 31°39' E 121°15'0 0.1
2015-Jul-31 09:30N 31°39' E 121°15'0 0.0
2015-Jul-31 08:25N 31°39' E 121°15'  
Track history (hours):
 
Tides and Currents Weather Stations Pressure Air Temp Water Temp Dewpoint Dewpoint Depression Visibility Wind Speed Wind Dir Waves Ship Positions

Volga-4011

Last reported at 2015-Aug-10 08:20 UTC. Time now 2015-Aug-31 15:24 UTC.
Position N 31°02' E 122°17'.
Warning: this ship's position is 21 days out of date.

Length 140 m; draft 3.7 m.

Type: Cargo ship. MMSI: 273358200.

Date/timePositionNaut miles runAvg speedWind from/ knotsBaromVisibWave heightAir tempDewpointWater temp
2015-Aug-10 08:20N 31°02' E 122°17'5 6.2
2015-Aug-10 07:33N 31°02' E 122°12'7 7.5
2015-Aug-10 06:33N 31°04' E 122°03'10 9.9
2015-Aug-10 05:33N 31°09' E 121°53'1110.4
2015-Aug-10 04:32N 31°17' E 121°45'9 9.2
2015-Aug-10 03:33N 31°22' E 121°37'8 8.3
2015-Aug-10 02:33N 31°27' E 121°28'8 7.8
2015-Aug-10 01:33N 31°32' E 121°21'8 8.2
2015-Aug-10 00:34N 31°38' E 121°16'0 0.2
2015-Aug-09 23:29N 31°39' E 121°16'0 0.1
2015-Aug-09 22:32N 31°38' E 121°16'0 0.1
2015-Aug-09 21:33N 31°38' E 121°16'0 0.0
2015-Aug-09 20:19N 31°38' E 121°16'0 0.1
2015-Aug-09 19:31N 31°38' E 121°16'0 0.0
2015-Aug-09 18:29N 31°38' E 121°16'0 0.0
2015-Aug-09 17:33N 31°38' E 121°16'0 0.1
2015-Aug-09 16:33N 31°38' E 121°16'0 0.1
2015-Aug-09 15:31N 31°39' E 121°15'0 0.0
2015-Aug-09 14:26N 31°39' E 121°15'0 0.0
2015-Aug-09 13:32N 31°39' E 121°15'0 0.0
2015-Aug-09 11:28N 31°39' E 121°15'0 0.0
2015-Aug-09 10:31N 31°39' E 121°15'0 0.1
2015-Aug-09 09:32N 31°39' E 121°16'0 0.1
2015-Aug-09 08:30N 31°38' E 121°16'0 0.1
2015-Aug-09 07:31N 31°38' E 121°16'0 0.0
2015-Aug-09 06:32N 31°38' E 121°16'0 0.0
2015-Aug-09 05:32N 31°38' E 121°16'0 0.0
2015-Aug-09 04:33N 31°38' E 121°16'0 0.0
2015-Aug-09 03:33N 31°38' E 121°16'0 0.1
2015-Aug-09 02:28N 31°38' E 121°16'0 0.1
2015-Aug-09 01:29N 31°39' E 121°16'0 0.0
2015-Aug-09 00:32N 31°39' E 121°16'0 0.0
2015-Aug-08 23:30N 31°39' E 121°16'0 0.0
2015-Aug-08 22:31N 31°39' E 121°16'0 0.0
2015-Aug-08 21:31N 31°39' E 121°16'0 0.1
2015-Aug-08 20:32N 31°38' E 121°16'0 0.0
2015-Aug-08 19:33N 31°38' E 121°16'0 0.0
2015-Aug-08 18:27N 31°38' E 121°16'0 0.0
2015-Aug-08 17:31N 31°38' E 121°16'0 0.0
2015-Aug-08 16:29N 31°38' E 121°16'0 0.0
2015-Aug-08 15:24N 31°38' E 121°16'0 0.1
2015-Aug-08 14:24N 31°38' E 121°16'0 0.1
2015-Aug-08 13:31N 31°39' E 121°15'0 0.0
2015-Aug-08 11:26N 31°39' E 121°15'0 0.0
2015-Aug-08 10:30N 31°39' E 121°15'0 0.0
2015-Aug-08 09:27N 31°39' E 121°15'0 0.0
2015-Aug-08 08:16N 31°39' E 121°15'0 0.1
2015-Aug-08 07:23N 31°38' E 121°16'0 0.1
2015-Aug-08 06:29N 31°38' E 121°16'0 0.0
2015-Aug-08 05:33N 31°38' E 121°16'0 0.0
2015-Aug-08 04:25N 31°38' E 121°16'0 0.0
2015-Aug-08 03:28N 31°38' E 121°16'0 0.0
2015-Aug-08 02:32N 31°38' E 121°16'0 0.1
2015-Aug-08 01:32N 31°38' E 121°16'0 0.1
2015-Aug-08 00:33N 31°39' E 121°16'0 0.0
2015-Aug-07 23:25N 31°39' E 121°16'0 0.0
2015-Aug-07 22:28N 31°39' E 121°16'0 0.0
2015-Aug-07 21:23N 31°39' E 121°16'0 0.0
2015-Aug-07 20:30N 31°39' E 121°16'0 0.1
2015-Aug-07 19:33N 31°38' E 121°16'0 0.0
2015-Aug-07 18:31N 31°38' E 121°16'0 0.0
2015-Aug-07 17:20N 31°38' E 121°16'0 0.1
2015-Aug-07 16:32N 31°38' E 121°16'0 0.0
2015-Aug-07 15:33N 31°38' E 121°16'0 0.0
2015-Aug-07 14:31N 31°38' E 121°16'0 0.0
2015-Aug-07 13:28N 31°38' E 121°16'0 0.1
2015-Aug-07 12:31N 31°39' E 121°15'0 0.1
2015-Aug-07 11:32N 31°39' E 121°16'2 1.6
2015-Aug-07 10:26N 31°38' E 121°14'0 0.0
2015-Aug-07 09:29N 31°38' E 121°14'0 0.0
2015-Aug-07 08:33N 31°38' E 121°14'0 0.0
2015-Aug-07 07:33N 31°38' E 121°14'0 0.0
2015-Aug-07 06:31N 31°38' E 121°14'0 0.0
2015-Aug-07 05:26N 31°38' E 121°14'0 0.0
2015-Aug-07 04:30N 31°38' E 121°14'0 0.0
2015-Aug-07 03:33N 31°38' E 121°14'0 0.0
2015-Aug-07 02:31N 31°38' E 121°14'0 0.0
2015-Aug-07 01:29N 31°38' E 121°14'0 0.0
2015-Aug-07 00:32N 31°38' E 121°14'0 0.0
2015-Aug-06 23:30N 31°38' E 121°14'0 0.0
2015-Aug-06 22:33N 31°38' E 121°14'0 0.0
2015-Aug-06 21:27N 31°38' E 121°14'0 0.0
2015-Aug-06 20:31N 31°38' E 121°14'0 0.0
2015-Aug-06 19:31N 31°38' E 121°14'0 0.0
2015-Aug-06 18:27N 31°38' E 121°14'0 0.0
2015-Aug-06 17:33N 31°38' E 121°14'0 0.0
2015-Aug-06 16:30N 31°38' E 121°14'0 0.0
2015-Aug-06 15:28N 31°38' E 121°14'0 0.0
2015-Aug-06 14:32N 31°38' E 121°14'0 0.0
2015-Aug-06 13:29N 31°38' E 121°14'0 0.0
2015-Aug-06 12:33N 31°38' E 121°14'0 0.0
2015-Aug-06 11:25N 31°38' E 121°14'0 0.0
2015-Aug-06 10:25N 31°38' E 121°14'0 0.0
2015-Aug-06 09:32N 31°38' E 121°14'0 0.0
2015-Aug-06 08:30N 31°38' E 121°14'0 0.0
2015-Aug-06 07:33N 31°38' E 121°14'1 1.1
2015-Aug-06 06:26N 31°39' E 121°15'0 0.1
2015-Aug-06 05:24N 31°39' E 121°15'0 0.1
2015-Aug-06 04:33N 31°39' E 121°15'0 0.0
2015-Aug-06 03:28N 31°39' E 121°15'0 0.0
2015-Aug-06 02:29N 31°39' E 121°15'0 0.1
2015-Aug-06 01:32N 31°39' E 121°15'0 0.0
2015-Aug-06 00:30N 31°39' E 121°15'0 0.1
2015-Aug-05 23:32N 31°39' E 121°15'0 0.1
2015-Aug-05 22:33N 31°39' E 121°15'0 0.0
2015-Aug-05 21:31N 31°39' E 121°15'0 0.0
2015-Aug-05 20:31N 31°39' E 121°15'0 0.0
2015-Aug-05 19:26N 31°39' E 121°15'0 0.0
2015-Aug-05 18:33N 31°39' E 121°15'0 0.2
2015-Aug-05 17:33N 31°39' E 121°15'0 0.0
2015-Aug-05 16:28N 31°39' E 121°15'0 0.0
2015-Aug-05 15:29N 31°39' E 121°15'0 0.0
2015-Aug-05 14:26N 31°39' E 121°15'0 0.0
2015-Aug-05 13:30N 31°39' E 121°15'0 0.1
2015-Aug-05 12:31N 31°39' E 121°15'0 0.1
2015-Aug-05 11:31N 31°39' E 121°15'0 0.2
2015-Aug-05 10:32N 31°39' E 121°15'0 0.1
2015-Aug-05 09:31N 31°39' E 121°15'0 0.0
2015-Aug-05 08:32N 31°39' E 121°15'0 0.0
2015-Aug-05 07:28N 31°39' E 121°15'0 0.1
2015-Aug-05 06:26N 31°39' E 121°15'0 0.2
2015-Aug-05 05:32N 31°39' E 121°15'0 0.0
2015-Aug-05 04:30N 31°39' E 121°15'0 0.0
2015-Aug-05 03:31N 31°39' E 121°15'0 0.0
2015-Aug-05 02:28N 31°39' E 121°15'0 0.0
2015-Aug-05 01:32N 31°39' E 121°15'0 0.0
2015-Aug-05 00:27N 31°39' E 121°15'0 0.1
2015-Aug-04 23:33N 31°39' E 121°15'0 0.1
2015-Aug-04 22:28N 31°39' E 121°15'0 0.1
2015-Aug-04 21:31N 31°39' E 121°15'0 0.0
2015-Aug-04 20:29N 31°39' E 121°15'0 0.0
2015-Aug-04 19:31N 31°39' E 121°15'0 0.0
2015-Aug-04 18:28N 31°39' E 121°15'0 0.1
2015-Aug-04 17:32N 31°39' E 121°15'0 0.1
2015-Aug-04 16:30N 31°39' E 121°15'0 0.0
2015-Aug-04 15:33N 31°39' E 121°15'0 0.0
2015-Aug-04 14:13N 31°39' E 121°15'0 0.1
2015-Aug-04 13:31N 31°39' E 121°15'0 0.0
2015-Aug-04 12:32N 31°39' E 121°15'0 0.0
2015-Aug-04 11:27N 31°39' E 121°15'0 0.1
2015-Aug-04 10:33N 31°39' E 121°15'0 0.1
2015-Aug-04 09:28N 31°39' E 121°15'0 0.0
2015-Aug-04 08:23N 31°39' E 121°15'0 0.0
2015-Aug-04 07:29N 31°39' E 121°15'0 0.0
2015-Aug-04 06:30N 31°39' E 121°15'0 0.2
2015-Aug-04 05:26N 31°39' E 121°15'0 0.0
2015-Aug-04 04:31N 31°39' E 121°15'0 0.0
2015-Aug-04 03:20N 31°39' E 121°15'0 0.1
2015-Aug-04 02:33N 31°39' E 121°15'0 0.0
2015-Aug-04 01:33N 31°39' E 121°15'0 0.0
2015-Aug-04 00:28N 31°39' E 121°15'0 0.0
2015-Aug-03 23:32N 31°39' E 121°15'0 0.0
2015-Aug-03 22:29N 31°39' E 121°15'0 0.1
2015-Aug-03 21:30N 31°39' E 121°15'0 0.1
2015-Aug-03 20:30N 31°39' E 121°15'0 0.0
2015-Aug-03 19:25N 31°39' E 121°15'0 0.0
2015-Aug-03 18:32N 31°39' E 121°15'0 0.0
2015-Aug-03 17:32N 31°39' E 121°15'0 0.1
2015-Aug-03 16:30N 31°39' E 121°15'0 0.0
2015-Aug-03 15:28N 31°39' E 121°15'0 0.0
2015-Aug-03 14:22N 31°39' E 121°15'0 0.0
2015-Aug-03 13:29N 31°39' E 121°15'0 0.0
2015-Aug-03 12:33N 31°39' E 121°15'0 0.1
2015-Aug-03 11:30N 31°39' E 121°15'0 0.0
2015-Aug-03 10:31N 31°39' E 121°15'0 0.1
2015-Aug-03 09:32N 31°39' E 121°15'0 0.2
2015-Aug-03 08:29N 31°39' E 121°15'0 0.0
2015-Aug-03 06:30N 31°39' E 121°15'0 0.0
2015-Aug-03 05:28N 31°39' E 121°15'0 0.2
2015-Aug-03 04:32N 31°39' E 121°15'0 0.1
2015-Aug-03 03:29N 31°39' E 121°15'0 0.0
2015-Aug-03 02:30N 31°39' E 121°15'0 0.0
2015-Aug-03 01:31N 31°39' E 121°15'0 0.0
2015-Aug-03 00:31N 31°39' E 121°15'0 0.0
2015-Aug-02 23:32N 31°39' E 121°15'0 0.0
2015-Aug-02 22:33N 31°39' E 121°15'0 0.1
2015-Aug-02 21:33N 31°39' E 121°15'0 0.1
2015-Aug-02 20:31N 31°39' E 121°15'0 0.1
2015-Aug-02 19:29N 31°39' E 121°15'0 0.0
2015-Aug-02 18:32N 31°39' E 121°15'0 0.0
2015-Aug-02 17:18N 31°39' E 121°15'0 0.0
2015-Aug-02 16:30N 31°39' E 121°15'0 0.2
2015-Aug-02 15:28N 31°39' E 121°15'0 0.1
2015-Aug-02 14:32N 31°39' E 121°15'0 0.1
2015-Aug-02 13:32N 31°39' E 121°15'0 0.1
2015-Aug-02 12:33N 31°39' E 121°15'0 0.1
2015-Aug-02 11:28N 31°39' E 121°15'0 0.0
2015-Aug-02 10:28N 31°39' E 121°15'0 0.1
2015-Aug-02 09:29N 31°39' E 121°15'0 0.1
2015-Aug-02 08:30N 31°39' E 121°15'0 0.1
2015-Aug-02 07:30N 31°39' E 121°15'0 0.0
2015-Aug-02 06:25N 31°39' E 121°15'0 0.1
2015-Aug-02 05:32N 31°39' E 121°15'0 0.1
2015-Aug-02 04:32N 31°39' E 121°15'0 0.1
2015-Aug-02 03:30N 31°39' E 121°15'0 0.0
2015-Aug-02 02:28N 31°39' E 121°15'0 0.1
2015-Aug-02 01:31N 31°39' E 121°15'0 0.0
2015-Aug-02 00:29N 31°39' E 121°15'0 0.0
2015-Aug-01 23:30N 31°39' E 121°15'0 0.0
2015-Aug-01 22:30N 31°39' E 121°15'0 0.0
2015-Aug-01 21:31N 31°39' E 121°15'0 0.0
2015-Aug-01 20:32N 31°39' E 121°15'0 0.1
2015-Aug-01 19:32N 31°39' E 121°15'0 0.0
2015-Aug-01 18:30N 31°39' E 121°15'0 0.0
2015-Aug-01 17:34N 31°39' E 121°15'0 0.0
2015-Aug-01 16:28N 31°39' E 121°15'0 0.1
2015-Aug-01 15:29N 31°39' E 121°15'0 0.1
2015-Aug-01 14:27N 31°39' E 121°15'0 0.0
2015-Aug-01 13:18N 31°39' E 121°15'0 0.0
2015-Aug-01 12:31N 31°39' E 121°15'0 0.0
2015-Aug-01 11:31N 31°39' E 121°15'0 0.0
2015-Aug-01 10:32N 31°39' E 121°15'0 0.0
2015-Aug-01 09:21N 31°39' E 121°15'0 0.1
2015-Aug-01 08:33N 31°39' E 121°15'0 0.1
2015-Aug-01 07:22N 31°39' E 121°15'0 0.1
2015-Aug-01 06:32N 31°39' E 121°15'0 0.0
2015-Aug-01 05:23N 31°39' E 121°15'0 0.0
2015-Aug-01 04:30N 31°39' E 121°15'0 0.1
2015-Aug-01 03:31N 31°39' E 121°15'0 0.1
2015-Aug-01 02:31N 31°39' E 121°15'0 0.0
2015-Aug-01 01:32N 31°39' E 121°15'0 0.0
2015-Aug-01 00:33N 31°39' E 121°15'0 0.0
2015-Jul-31 23:33N 31°39' E 121°15'0 0.0
2015-Jul-31 22:28N 31°39' E 121°15'0 0.0
2015-Jul-31 21:29N 31°39' E 121°15'0 0.0
2015-Jul-31 20:29N 31°39' E 121°15'0 0.1
2015-Jul-31 19:30N 31°39' E 121°15'0 0.2
2015-Jul-31 18:31N 31°39' E 121°15'0 0.1
2015-Jul-31 17:31N 31°39' E 121°15'0 0.0
2015-Jul-31 16:32N 31°39' E 121°15'0 0.1
2015-Jul-31 14:24N 31°39' E 121°15'0 0.1
2015-Jul-31 13:25N 31°39' E 121°15'0 0.0
2015-Jul-31 12:31N 31°39' E 121°15'0 0.0
2015-Jul-31 11:29N 31°39' E 121°15'0 0.1
2015-Jul-31 10:30N 31°39' E 121°15'0 0.1
2015-Jul-31 09:30N 31°39' E 121°15'0 0.0
2015-Jul-31 08:25N 31°39' E 121°15'  

Dump ship's entire track history